Time;durP1;ratioP1;P1;durP2;ratioP2;P2;SDS_P1;SDS_P2;PMS_P1;PMS_P2;Temp;Humidity;BMP_temperature;BMP_pressure;BME280_temperature;BME280_humidity;BME280_pressure;Samples;Min_cycle;Max_cycle;Signal;HPM_P1;HPM_P2
2022/01/24 00:01:18;;;;;;;17.12;13.68;;;;;;;-4.98;58.04;95689.61;1678242;85;20976;-49
2022/01/24 00:03:45;;;;;;;26.93;17.07;;;;;;;-4.88;58.35;95687.31;1664838;85;20975;-50
2022/01/24 00:06:15;;;;;;;55.92;28.87;;;;;;;-4.71;58.73;95701.15;1676042;84;21031;-49
2022/01/24 00:08:44;;;;;;;44.00;23.55;;;;;;;-4.56;59.06;95695.99;1679865;84;21137;-50
2022/01/24 00:11:16;;;;;;;38.35;22.22;;;;;;;-4.43;58.97;95699.52;1670074;85;20997;-49
2022/01/24 00:14:51;;;;;;;34.23;19.92;;;;;;;-4.44;58.92;95697.94;1646830;86;21081;-49
2022/01/24 00:26:59;;;;;;;65.28;30.45;;;;;;;-4.23;59.90;95702.72;1678497;85;20982;-49
2022/01/24 00:29:26;;;;;;;63.55;29.23;;;;;;;-4.22;59.24;95698.34;1664257;85;20974;-49
2022/01/24 00:31:54;;;;;;;54.40;27.35;;;;;;;-4.37;59.35;95696.84;1673593;85;20953;-49
2022/01/24 00:34:24;;;;;;;73.20;36.58;;;;;;;-4.53;59.59;95706.61;1666594;85;21689;-48
2022/01/24 00:36:51;;;;;;;77.90;38.30;;;;;;;-4.73;59.80;95706.06;1659336;85;21251;-50
2022/01/24 00:39:20;;;;;;;51.75;25.95;;;;;;;-4.85;60.74;95712.15;1672848;85;20989;-49
2022/01/24 00:46:55;;;;;;;48.78;25.72;;;;;;;-4.38;61.16;95716.18;1664823;85;21095;-50
2022/01/24 00:49:48;;;;;;;52.62;28.30;;;;;;;-4.24;60.76;95717.27;1660427;85;21079;-49
2022/01/24 00:54:54;;;;;;;175.10;84.15;;;;;;;-4.29;60.35;95718.25;1667288;85;21058;-50
2022/01/24 00:57:22;;;;;;;201.52;95.72;;;;;;;-4.40;60.37;95725.70;1677245;85;21065;-50
2022/01/24 00:59:49;;;;;;;91.32;44.27;;;;;;;-4.53;60.69;95712.78;1670443;85;21168;-49
2022/01/24 01:02:17;;;;;;;59.33;31.00;;;;;;;-4.45;61.63;95720.54;1677965;85;21013;-49
2022/01/24 01:07:30;;;;;;;83.72;42.40;;;;;;;-4.16;60.83;95733.85;1675416;84;20975;-49
2022/01/24 01:23:28;;;;;;;69.12;38.15;;;;;;;-4.45;61.43;95744.70;1667646;84;21054;-49
2022/01/24 01:26:01;;;;;;;66.50;37.50;;;;;;;-4.37;62.03;95745.97;1674780;84;21844;-49
2022/01/24 01:28:30;;;;;;;72.92;37.55;;;;;;;-4.29;61.77;95747.80;1672605;84;21006;-50
2022/01/24 01:31:02;;;;;;;78.55;37.78;;;;;;;-4.15;61.84;95746.16;1669856;85;20978;-50
2022/01/24 01:33:42;;;;;;;68.80;38.83;;;;;;;-4.05;61.14;95751.14;1672819;85;21034;-49
2022/01/24 01:36:10;;;;;;;62.98;33.53;;;;;;;-4.05;61.08;95753.83;1672375;85;21025;-51
2022/01/24 01:53:25;;;;;;;55.33;29.90;;;;;;;-4.02;60.20;95755.84;1673422;85;21096;-49
2022/01/24 01:55:40;;;;;;;54.35;29.20;;;;;;;-4.18;60.37;95751.66;1673126;85;21017;-48
2022/01/24 01:58:13;;;;;;;55.38;28.95;;;;;;;-4.29;60.75;95754.50;1669204;85;21480;-49
2022/01/24 02:00:45;;;;;;;43.45;25.85;;;;;;;-4.31;60.66;95756.73;1673993;84;20990;-49
2022/01/24 02:03:12;;;;;;;33.45;22.13;;;;;;;-4.29;60.64;95756.39;1656281;85;21069;-49
2022/01/24 02:05:39;;;;;;;35.33;20.75;;;;;;;-4.31;60.53;95758.08;1674660;84;21553;-54
2022/01/24 02:08:06;;;;;;;34.48;21.33;;;;;;;-4.32;60.57;95751.14;1667134;85;20969;-50
2022/01/24 02:10:35;;;;;;;23.87;16.10;;;;;;;-4.25;59.87;95762.70;1671844;84;20987;-49
2022/01/24 02:13:04;;;;;;;21.42;14.80;;;;;;;-4.31;59.72;95756.73;1667955;84;21461;-49
2022/01/24 02:21:08;;;;;;;41.48;21.85;;;;;;;-4.52;59.11;95764.55;1677798;85;21006;-49
2022/01/24 02:25:58;;;;;;;31.73;19.57;;;;;;;-4.87;59.70;95759.98;1642632;85;20985;-49
2022/01/24 02:28:28;;;;;;;26.25;19.10;;;;;;;-4.78;60.29;95766.64;1619724;86;21603;-49
2022/01/24 02:31:22;;;;;;;31.17;18.15;;;;;;;-4.59;60.29;95777.72;1673717;85;21159;-49
2022/01/24 02:33:34;;;;;;;40.20;22.70;;;;;;;-4.47;59.71;95787.17;1669736;85;21010;-50
2022/01/24 02:36:00;;;;;;;40.12;22.50;;;;;;;-4.41;59.45;95785.31;1671604;85;21001;-51
2022/01/24 02:49:14;;;;;;;40.23;24.10;;;;;;;-4.18;59.06;95784.43;1674228;85;21049;-49
2022/01/24 02:51:47;;;;;;;34.30;20.08;;;;;;;-4.18;59.22;95780.41;1676919;85;20977;-50
2022/01/24 02:54:22;;;;;;;33.40;20.00;;;;;;;-4.18;58.51;95775.83;1660109;85;20970;-49
2022/01/24 02:56:49;;;;;;;23.20;14.85;;;;;;;-4.29;58.44;95785.93;1655086;85;21216;-49
2022/01/24 02:59:16;;;;;;;28.85;17.87;;;;;;;-4.50;58.49;95791.86;1663179;85;20957;-49
2022/01/24 03:01:43;;;;;;;31.17;16.93;;;;;;;-4.76;58.77;95787.23;1661717;85;21060;-49
2022/01/24 03:04:14;;;;;;;27.50;16.67;;;;;;;-4.88;59.48;95782.56;1672852;85;21463;-50
2022/01/24 03:06:41;;;;;;;22.30;15.43;;;;;;;-4.83;59.86;95784.28;1677088;84;21592;-50
2022/01/24 03:09:15;;;;;;;26.55;17.40;;;;;;;-4.76;59.47;95779.95;1680817;84;21426;-51
2022/01/24 03:14:30;;;;;;;24.02;16.30;;;;;;;-4.83;59.16;95788.30;1662694;85;21017;-50
2022/01/24 03:16:56;;;;;;;21.97;15.50;;;;;;;-4.81;59.73;95784.73;1668901;85;20994;-48
2022/01/24 03:19:25;;;;;;;55.90;27.98;;;;;;;-4.71;59.24;95793.73;1638514;85;21636;-48
2022/01/24 03:21:54;;;;;;;55.25;25.52;;;;;;;-4.72;59.13;95793.51;1676531;84;22028;-49
2022/01/24 03:24:20;;;;;;;25.20;18.15;;;;;;;-4.73;59.29;95787.38;1643192;85;20960;-50
2022/01/24 03:26:47;;;;;;;21.60;16.05;;;;;;;-4.69;59.42;95792.85;1672903;84;21100;-48
2022/01/24 03:29:16;;;;;;;22.32;15.55;;;;;;;-4.66;58.99;95797.02;1675442;85;21013;-49
2022/01/24 03:31:43;;;;;;;22.87;14.70;;;;;;;-4.69;58.73;95806.27;1671086;85;21457;-49
2022/01/24 03:34:10;;;;;;;20.17;14.07;;;;;;;-4.76;58.85;95810.80;1678567;84;21186;-49
2022/01/24 03:36:36;;;;;;;22.48;14.10;;;;;;;-4.76;58.60;95811.38;1670105;84;21450;-49
2022/01/24 03:39:10;;;;;;;21.93;15.05;;;;;;;-4.77;58.75;95815.17;1665377;85;21520;-49
2022/01/24 03:41:39;;;;;;;26.48;15.95;;;;;;;-4.76;58.67;95816.75;1678066;84;20962;-49
2022/01/24 03:44:10;;;;;;;34.55;19.82;;;;;;;-4.75;58.48;95826.36;1679162;84;20966;-50
2022/01/24 03:52:09;;;;;;;33.40;18.45;;;;;;;-4.84;58.91;95825.61;1673441;84;21017;-49
2022/01/24 03:54:36;;;;;;;25.35;15.58;;;;;;;-4.98;58.43;95819.70;1638182;85;21017;-50
2022/01/24 03:57:04;;;;;;;25.10;16.02;;;;;;;-5.21;58.56;95811.12;1670073;85;21085;-50
2022/01/24 03:59:31;;;;;;;19.75;13.20;;;;;;;-5.41;58.70;95813.70;1674306;85;21144;-50
2022/01/24 04:02:01;;;;;;;22.00;15.10;;;;;;;-5.57;58.98;95811.30;1679722;84;21141;-50
2022/01/24 04:04:28;;;;;;;44.00;24.65;;;;;;;-5.55;59.36;95820.38;1678791;84;21034;-51
2022/01/24 04:06:55;;;;;;;41.75;22.40;;;;;;;-5.53;59.19;95818.97;1667185;84;21004;-50
2022/01/24 04:09:24;;;;;;;39.35;22.20;;;;;;;-5.60;59.26;95811.17;1657439;85;21037;-49
2022/01/24 04:11:56;;;;;;;54.88;28.85;;;;;;;-5.84;59.13;95823.78;1668441;84;21844;-50
2022/01/24 04:17:38;;;;;;;108.05;48.90;;;;;;;-6.39;60.22;95834.91;1672158;85;21084;-50
2022/01/24 04:21:55;;;;;;;101.75;49.42;;;;;;;-6.49;60.84;95828.50;1612172;85;21010;-49
2022/01/24 04:24:24;;;;;;;104.45;43.33;;;;;;;-6.56;61.06;95833.55;1668981;84;21154;-50
2022/01/24 04:26:50;;;;;;;92.62;41.33;;;;;;;-6.53;61.32;95834.81;1678725;85;20962;-50
2022/01/24 04:29:17;;;;;;;83.22;40.08;;;;;;;-6.55;61.26;95844.48;1678845;85;21141;-51
2022/01/24 04:31:45;;;;;;;85.72;39.03;;;;;;;-6.62;61.57;95844.17;1652798;85;20998;-49
2022/01/24 04:34:14;;;;;;;80.40;34.80;;;;;;;-6.57;61.89;95840.00;1642427;85;21195;-50
2022/01/24 04:36:43;;;;;;;92.90;40.10;;;;;;;-6.54;61.41;95836.69;1666204;84;21063;-49
2022/01/24 04:39:11;;;;;;;90.00;41.75;;;;;;;-6.63;61.48;95843.13;1679513;84;20970;-49
2022/01/24 04:41:42;;;;;;;99.70;45.12;;;;;;;-6.62;61.70;95850.86;1681003;84;20968;-48
2022/01/24 04:44:32;;;;;;;117.67;51.83;;;;;;;-6.54;61.48;95847.40;1676165;85;20970;-50
2022/01/24 04:47:01;;;;;;;114.70;52.03;;;;;;;-6.46;61.51;95851.19;1651692;85;21471;-49
2022/01/24 04:52:29;;;;;;;88.40;43.63;;;;;;;-6.21;60.94;95853.89;1683928;84;21525;-50
2022/01/24 04:54:51;;;;;;;78.60;38.70;;;;;;;-6.22;60.24;95856.33;1666507;85;21013;-49
2022/01/24 04:57:23;;;;;;;81.78;40.55;;;;;;;-6.26;59.77;95843.34;1647392;85;21470;-49
2022/01/24 04:59:51;;;;;;;72.50;34.10;;;;;;;-6.30;59.47;95854.98;1674646;84;21458;-50
2022/01/24 05:02:20;;;;;;;68.33;34.58;;;;;;;-6.47;58.91;95861.66;1663407;85;21194;-49
2022/01/24 05:04:47;;;;;;;71.85;33.02;;;;;;;-6.71;59.14;95864.75;1675056;85;21011;-49
2022/01/24 05:07:14;;;;;;;65.57;32.23;;;;;;;-6.86;59.74;95861.16;1668017;84;21063;-49
2022/01/24 05:09:49;;;;;;;;;;;;;;;;;;;;;
2022/01/24 05:25:44;;;;;;;84.52;39.98;;;;;;;-7.13;60.60;95886.55;1624589;85;21136;-48
2022/01/24 05:28:10;;;;;;;75.10;36.40;;;;;;;-7.26;60.83;95888.77;1670380;85;21131;-49
2022/01/24 05:30:37;;;;;;;65.87;33.33;;;;;;;-7.31;61.37;95887.57;1682514;84;20941;-50
2022/01/24 05:33:06;;;;;;;59.10;30.57;;;;;;;-7.34;61.35;95896.20;1666478;84;21533;-50
2022/01/24 05:35:35;;;;;;;56.65;27.60;;;;;;;-7.41;61.34;95905.19;1672595;84;20970;-53
2022/01/24 05:38:02;;;;;;;70.87;34.18;;;;;;;-7.54;61.63;95894.05;1662071;85;21091;-51
2022/01/24 05:40:30;;;;;;;80.87;41.33;;;;;;;-7.58;62.06;95905.08;1677774;85;22339;-51
2022/01/24 05:42:57;;;;;;;68.12;32.73;;;;;;;-7.49;62.12;95909.38;1667008;85;20958;-51
2022/01/24 05:45:23;;;;;;;68.33;34.03;;;;;;;-7.35;61.99;95907.99;1672887;85;21065;-51
2022/01/24 05:47:50;;;;;;;75.62;37.28;;;;;;;-7.38;61.52;95912.62;1686839;84;20982;-47
2022/01/24 05:50:17;;;;;;;100.78;46.25;;;;;;;-7.41;61.57;95922.55;1674786;84;21458;-47
2022/01/24 05:52:44;;;;;;;100.33;48.55;;;;;;;-7.38;61.52;95916.63;1661230;84;21145;-47
2022/01/24 05:55:11;;;;;;;82.92;43.20;;;;;;;-7.35;61.31;95926.70;1675120;84;20962;-47
2022/01/24 05:57:38;;;;;;;72.58;39.88;;;;;;;-7.29;61.14;95921.45;1674664;85;21096;-48
2022/01/24 06:00:09;;;;;;;85.15;42.17;;;;;;;-7.35;60.57;95920.79;1674438;85;21097;-47
2022/01/24 06:02:39;;;;;;;92.70;45.25;;;;;;;-7.42;60.76;95924.45;1677377;85;21007;-47
2022/01/24 06:05:07;;;;;;;81.12;43.02;;;;;;;-7.47;60.80;95921.91;1660761;85;21804;-46
2022/01/24 06:07:36;;;;;;;94.58;45.25;;;;;;;-7.43;60.97;95924.21;1678509;85;21025;-47
2022/01/24 06:10:05;;;;;;;90.22;43.60;;;;;;;-7.49;60.67;95928.64;1643943;85;21509;-48
2022/01/24 06:12:32;;;;;;;95.38;48.58;;;;;;;-7.59;60.78;95921.67;1675001;85;21545;-47
2022/01/24 06:14:58;;;;;;;103.80;51.95;;;;;;;-7.61;61.06;95926.53;1677855;84;20982;-47
2022/01/24 06:17:27;;;;;;;120.50;54.03;;;;;;;-7.63;61.05;95931.39;1672904;85;21742;-47
2022/01/24 06:19:53;;;;;;;135.45;60.03;;;;;;;-7.72;61.23;95933.76;1676522;85;21065;-48
2022/01/24 06:22:24;;;;;;;116.95;55.52;;;;;;;-7.79;61.45;95942.72;1656020;85;21022;-47
2022/01/24 06:24:54;;;;;;;122.10;59.80;;;;;;;-7.83;61.48;95941.75;1681993;84;21064;-50
2022/01/24 06:27:21;;;;;;;108.50;52.10;;;;;;;-7.80;61.70;95938.47;1680551;84;21119;-48
2022/01/24 06:29:47;;;;;;;94.07;47.88;;;;;;;-7.72;61.43;95945.22;1678602;84;21463;-48
2022/01/24 06:32:14;;;;;;;77.62;40.75;;;;;;;-7.64;61.35;95949.05;1667077;85;21028;-50
2022/01/24 06:34:41;;;;;;;92.97;47.08;;;;;;;-7.61;61.33;95953.24;1681569;84;21454;-51
2022/01/24 06:37:09;;;;;;;97.92;47.40;;;;;;;-7.58;61.26;95959.30;1680496;84;20987;-51
2022/01/24 06:39:36;;;;;;;113.20;54.15;;;;;;;-7.54;61.18;95958.94;1676210;84;20966;-51
2022/01/24 06:42:13;;;;;;;122.45;58.38;;;;;;;-7.52;61.26;95956.75;1649484;85;21106;-48
2022/01/24 06:44:42;;;;;;;94.85;47.08;;;;;;;-7.43;61.25;95954.13;1637633;86;21112;-48
2022/01/24 06:47:12;;;;;;;90.97;44.10;;;;;;;-7.24;61.02;95958.73;1655740;86;21018;-48
2022/01/24 06:49:39;;;;;;;83.30;43.35;;;;;;;-7.08;60.70;95955.92;1647846;85;21045;-49
2022/01/24 06:52:07;;;;;;;84.87;40.20;;;;;;;-6.99;60.16;95960.22;1672671;84;21028;-49
2022/01/24 06:54:36;;;;;;;79.17;40.35;;;;;;;-7.00;59.93;95957.86;1629600;86;21154;-49
2022/01/24 06:57:09;;;;;;;76.85;40.83;;;;;;;-6.88;60.04;95964.98;1630941;85;21571;-49
2022/01/24 06:59:39;;;;;;;81.35;42.20;;;;;;;-6.68;59.58;95959.09;1616048;86;21084;-48
2022/01/24 07:02:07;;;;;;;108.32;50.52;;;;;;;-6.51;59.27;95963.16;1611041;87;21157;-50
2022/01/24 07:04:36;;;;;;;110.30;52.40;;;;;;;-6.42;59.02;95961.32;1598697;87;21100;-51
2022/01/24 07:07:11;;;;;;;103.12;49.90;;;;;;;-6.39;58.79;95955.34;1671420;84;21122;-48
2022/01/24 07:09:38;;;;;;;106.90;47.45;;;;;;;-6.31;58.67;95958.58;1677262;84;21489;-49
2022/01/24 07:12:06;;;;;;;100.35;46.88;;;;;;;-6.24;58.25;95962.14;1642139;84;21100;-47
2022/01/24 07:14:33;;;;;;;96.70;44.53;;;;;;;-6.32;58.33;95965.03;1651677;86;21123;-48
2022/01/24 07:19:29;;;;;;;177.00;65.65;;;;;;;-6.09;58.15;95967.06;1678693;84;21960;-48
2022/01/24 07:22:01;;;;;;;164.25;64.45;;;;;;;-6.01;57.88;95964.96;1636981;84;21089;-49
2022/01/24 07:24:31;;;;;;;154.10;74.23;;;;;;;-5.82;58.07;95978.28;1657055;83;21025;-48
2022/01/24 07:26:59;;;;;;;139.47;71.17;;;;;;;-5.65;57.51;95970.77;1654427;84;21136;-47
2022/01/24 07:29:26;;;;;;;152.95;74.82;;;;;;;-5.63;57.35;95973.95;1647083;85;21064;-49
2022/01/24 07:31:54;;;;;;;146.05;73.35;;;;;;;-5.60;57.41;95978.67;1634273;86;21174;-48
2022/01/24 07:34:21;;;;;;;134.25;68.75;;;;;;;-5.43;57.47;95975.42;1634208;86;21089;-48
2022/01/24 07:36:50;;;;;;;109.90;52.30;;;;;;;-5.16;56.97;95976.44;1635287;86;21148;-48
2022/01/24 07:39:20;;;;;;;142.65;65.20;;;;;;;-5.07;56.17;95985.23;1621346;86;21080;-48
2022/01/24 07:41:47;;;;;;;130.25;52.43;;;;;;;-5.10;55.86;95977.83;1595058;87;21176;-50
2022/01/24 07:44:20;;;;;;;149.20;62.17;;;;;;;-5.10;55.33;95977.30;1559188;88;21157;-52
2022/01/24 07:46:46;;;;;;;138.30;62.53;;;;;;;-5.28;55.02;95986.23;1563153;89;21498;-50
2022/01/24 07:49:14;;;;;;;128.90;58.15;;;;;;;-5.39;55.17;95995.69;1654591;84;21105;-49
2022/01/24 07:51:42;;;;;;;145.53;59.33;;;;;;;-5.52;55.24;95996.09;1649082;84;21442;-50
2022/01/24 07:54:12;;;;;;;153.87;63.83;;;;;;;-5.66;55.49;95998.13;1638178;84;21585;-47
2022/01/24 07:56:39;;;;;;;148.25;63.78;;;;;;;-5.79;55.71;96002.33;1638737;85;21063;-47
2022/01/24 07:59:08;;;;;;;119.05;52.25;;;;;;;-5.90;55.94;96009.88;1655087;85;21172;-51
2022/01/24 08:01:36;;;;;;;139.90;62.53;;;;;;;-6.00;56.23;96018.20;1625492;85;21597;-49
2022/01/24 08:04:04;;;;;;;125.40;57.80;;;;;;;-6.01;56.10;96021.20;1673182;84;21144;-46
2022/01/24 08:06:31;;;;;;;112.40;53.40;;;;;;;-5.94;56.27;96023.63;1628555;85;21560;-48
2022/01/24 08:09:06;;;;;;;106.67;53.83;;;;;;;-5.87;56.10;96032.02;1639972;85;21247;-47
2022/01/24 08:11:32;;;;;;;94.40;46.63;;;;;;;-5.89;56.19;96020.83;1628950;85;21096;-50
2022/01/24 08:14:00;;;;;;;110.40;55.03;;;;;;;-5.93;56.05;96015.83;1632109;86;21072;-50
2022/01/24 08:16:26;;;;;;;137.25;67.17;;;;;;;-6.08;55.97;96020.84;1637985;86;21288;-48
2022/01/24 08:18:55;;;;;;;184.05;86.67;;;;;;;-6.26;56.31;96020.03;1644123;84;21181;-49
2022/01/24 08:21:22;;;;;;;467.25;203.45;;;;;;;-6.29;56.77;96017.97;1643654;85;22185;-53
2022/01/24 08:23:49;;;;;;;174.20;86.53;;;;;;;-6.14;56.74;96018.86;1643689;85;21049;-47
2022/01/24 08:26:19;;;;;;;140.40;72.42;;;;;;;-5.95;56.74;96023.97;1659001;84;21088;-49
2022/01/24 08:28:47;;;;;;;161.00;77.42;;;;;;;-5.60;56.97;96027.68;1596962;87;21107;-50
2022/01/24 08:31:15;;;;;;;144.82;77.45;;;;;;;-5.26;56.38;96019.66;1584846;88;21075;-50
2022/01/24 08:33:41;;;;;;;123.65;64.03;;;;;;;-4.90;56.17;96014.18;1623446;87;21135;-48
2022/01/24 08:36:08;;;;;;;96.30;50.12;;;;;;;-4.48;55.25;96007.09;1596950;88;21222;-47
2022/01/24 08:38:41;;;;;;;81.90;44.98;;;;;;;-4.28;54.68;96008.53;1612864;88;21065;-48
2022/01/24 08:41:18;;;;;;;83.15;49.98;;;;;;;-4.24;53.90;96001.39;1617984;87;21695;-50
2022/01/24 08:46:14;;;;;;;135.30;67.37;;;;;;;-4.29;53.59;96010.18;1655877;84;21142;-47
2022/01/24 08:48:45;;;;;;;162.60;85.10;;;;;;;-4.25;53.65;96012.48;1622771;86;21002;-51
2022/01/24 08:51:12;;;;;;;178.07;93.77;;;;;;;-4.24;53.44;95996.59;1606863;87;21090;-48
2022/01/24 08:53:41;;;;;;;175.15;87.60;;;;;;;-4.27;53.23;95998.02;1602887;87;21022;-48
2022/01/24 08:56:13;;;;;;;173.62;83.25;;;;;;;-4.26;53.25;95982.13;1670808;83;21022;-47
2022/01/24 08:58:40;;;;;;;101.30;54.58;;;;;;;-4.17;53.21;95988.80;1661232;84;21102;-47
2022/01/24 09:01:07;;;;;;;94.05;49.27;;;;;;;-4.10;52.70;96002.51;1640882;85;21029;-46
2022/01/24 09:03:39;;;;;;;117.37;58.13;;;;;;;-4.10;52.92;96002.51;1663373;84;21168;-47
2022/01/24 09:06:05;;;;;;;71.05;38.28;;;;;;;-4.01;53.16;95989.83;1627798;86;21021;-48
2022/01/24 09:08:36;;;;;;;45.33;26.00;;;;;;;-3.64;53.34;95984.93;1659311;84;20981;-47
2022/01/24 09:11:07;;;;;;;78.47;41.68;;;;;;;-3.27;52.31;95985.59;1599249;85;21204;-49
2022/01/24 09:13:37;;;;;;;84.97;45.28;;;;;;;-3.07;52.27;95978.62;1649182;85;21110;-48
2022/01/24 09:16:05;;;;;;;123.15;60.52;;;;;;;-2.78;51.62;95976.58;1675995;84;21213;-47
2022/01/24 09:18:32;;;;;;;102.20;55.92;;;;;;;-2.50;50.93;95968.67;1654981;84;21171;-52
2022/01/24 09:20:59;;;;;;;108.63;56.35;;;;;;;-2.22;49.97;95960.95;1640397;85;21192;-47
2022/01/24 09:23:26;;;;;;;109.57;60.33;;;;;;;-1.91;50.10;95962.53;1639827;85;21957;-48
2022/01/24 09:25:52;;;;;;;77.80;43.87;;;;;;;-1.51;49.76;95952.56;1613328;85;21041;-47
2022/01/24 09:28:19;;;;;;;78.60;42.78;;;;;;;-1.01;48.00;95952.83;1621531;86;20999;-49
2022/01/24 09:30:51;;;;;;;89.20;48.05;;;;;;;-0.85;47.12;95949.05;1611137;87;21200;-47
2022/01/24 09:33:18;;;;;;;68.60;35.78;;;;;;;-0.38;47.14;95939.07;1599085;88;21506;-47
2022/01/24 09:35:46;;;;;;;31.40;17.62;;;;;;;0.28;44.79;95939.89;1602184;86;21325;-46
2022/01/24 09:38:13;;;;;;;32.83;19.45;;;;;;;0.42;43.76;95939.63;1697426;83;21050;-48
2022/01/24 09:40:40;;;;;;;23.95;14.83;;;;;;;0.32;43.33;95943.45;1674588;84;20995;-48
2022/01/24 09:43:06;;;;;;;22.50;15.63;;;;;;;0.18;43.33;95937.16;1609571;86;21084;-47
2022/01/24 09:45:33;;;;;;;22.07;15.18;;;;;;;0.26;42.00;95934.83;1639488;85;21066;-48
2022/01/24 09:48:10;;;;;;;24.70;16.17;;;;;;;0.18;41.65;95931.75;1642074;85;21147;-48
2022/01/24 09:50:40;;;;;;;27.55;18.15;;;;;;;0.01;41.48;95918.61;1660070;85;21017;-49
2022/01/24 09:53:08;;;;;;;43.38;23.77;;;;;;;0.00;41.84;95926.50;1653748;85;21101;-49
2022/01/24 09:55:35;;;;;;;75.57;40.80;;;;;;;0.19;41.30;95931.20;1645784;86;21081;-47
2022/01/24 09:58:02;;;;;;;43.75;27.00;;;;;;;0.26;41.73;95928.64;1655532;84;21092;-51
2022/01/24 10:00:31;;;;;;;30.95;19.85;;;;;;;0.38;41.27;95923.89;1654899;85;21149;-50
2022/01/24 10:02:58;;;;;;;18.20;13.43;;;;;;;0.58;40.37;95920.07;1656882;85;21202;-48
2022/01/24 10:05:33;;;;;;;23.95;14.75;;;;;;;0.78;39.93;95917.58;1642331;86;21100;-46
2022/01/24 10:08:03;;;;;;;19.07;13.38;;;;;;;0.97;39.71;95914.88;1648107;85;21028;-48
2022/01/24 10:10:46;;;;;;;18.23;13.13;;;;;;;1.18;39.21;95911.21;1681889;84;21081;-47
2022/01/24 10:16:30;;;;;;;28.30;19.62;;;;;;;1.42;38.99;95906.03;1649130;85;21419;-49
2022/01/24 10:19:22;;;;;;;29.42;19.48;;;;;;;1.31;39.16;95903.72;1657170;85;21105;-50
2022/01/24 10:21:53;;;;;;;27.20;16.35;;;;;;;1.16;39.29;95906.72;1646989;86;21101;-47
2022/01/24 10:24:34;;;;;;;24.12;16.00;;;;;;;1.07;39.66;95902.11;1640033;85;21033;-46
2022/01/24 10:27:24;;;;;;;22.10;14.55;;;;;;;1.08;39.19;95895.55;1627179;86;21290;-47
2022/01/24 10:30:07;;;;;;;20.20;13.85;;;;;;;1.13;38.89;95897.96;1628941;86;21093;-47
2022/01/24 10:32:49;;;;;;;23.27;15.40;;;;;;;1.30;38.98;95889.38;1639510;85;21004;-46
2022/01/24 10:35:45;;;;;;;24.95;16.40;;;;;;;1.41;39.55;95879.52;1616936;85;21117;-46
2022/01/24 10:41:17;;;;;;;22.42;14.55;;;;;;;2.40;37.97;95873.91;1627123;87;21815;-47
2022/01/24 10:43:40;;;;;;;22.73;15.18;;;;;;;2.73;37.50;95869.84;1635013;85;21057;-47
2022/01/24 10:46:07;;;;;;;21.12;15.05;;;;;;;3.31;36.35;95872.84;1659233;85;20981;-47
2022/01/24 10:48:41;;;;;;;27.17;16.32;;;;;;;3.46;36.22;95869.11;1639700;85;21184;-47
2022/01/24 10:51:21;;;;;;;18.32;12.85;;;;;;;3.60;35.92;95849.05;1655234;84;21506;-51
2022/01/24 10:53:55;;;;;;;14.60;11.15;;;;;;;3.53;35.74;95851.69;1607559;87;21855;-47
2022/01/24 10:56:36;;;;;;;16.70;11.83;;;;;;;3.37;35.50;95848.22;1629285;86;21082;-49
2022/01/24 10:59:22;;;;;;;16.07;11.75;;;;;;;3.47;35.33;95843.47;1599445;88;21132;-50
2022/01/24 11:01:53;;;;;;;16.87;11.97;;;;;;;3.70;35.41;95849.70;1637779;85;39166;-46
2022/01/24 11:04:21;;;;;;;20.45;14.53;;;;;;;3.95;35.28;95837.65;1658365;84;21067;-48
2022/01/24 11:06:54;;;;;;;19.50;14.18;;;;;;;4.09;34.80;95842.60;1652310;84;21151;-48
2022/01/24 11:09:29;;;;;;;23.75;14.55;;;;;;;4.35;35.48;95837.52;1650845;85;21103;-49
2022/01/24 11:12:12;;;;;;;16.75;10.90;;;;;;;4.80;34.92;95836.98;1654445;85;21048;-48
2022/01/24 11:14:42;;;;;;;20.48;11.22;;;;;;;5.24;33.65;95835.56;1642223;86;20970;-51
2022/01/24 11:17:14;;;;;;;20.05;12.25;;;;;;;5.05;33.46;95837.27;1642997;85;21386;-47
2022/01/24 11:19:51;;;;;;;19.80;12.05;;;;;;;4.48;34.38;95824.58;1648518;85;21294;-45
2022/01/24 11:22:20;;;;;;;17.75;11.70;;;;;;;4.28;35.00;95830.08;1624220;86;21101;-47
2022/01/24 11:24:51;;;;;;;21.05;14.10;;;;;;;4.45;34.39;95832.13;1634731;84;21010;-47
2022/01/24 11:27:15;;;;;;;17.65;11.88;;;;;;;4.60;34.63;95832.40;1618044;86;21482;-47
2022/01/24 11:29:44;;;;;;;19.25;13.98;;;;;;;5.07;34.29;95833.56;1592818;87;21617;-48
2022/01/24 11:32:36;;;;;;;19.77;13.18;;;;;;;5.31;34.18;95832.27;1595014;85;21118;-46
2022/01/24 11:35:04;;;;;;;22.80;15.25;;;;;;;5.70;33.80;95830.94;1682668;84;21493;-48
2022/01/24 11:37:41;;;;;;;21.87;14.70;;;;;;;5.62;33.49;95828.02;1646610;84;21136;-52
2022/01/24 11:40:20;;;;;;;28.38;19.48;;;;;;;5.43;33.92;95831.12;1624315;87;21519;-52
2022/01/24 11:42:47;;;;;;;22.82;15.00;;;;;;;5.55;34.90;95829.36;1660834;84;21532;-49
2022/01/24 11:45:18;;;;;;;28.23;20.25;;;;;;;6.18;34.02;95826.67;1676198;84;21244;-47
2022/01/24 11:47:48;;;;;;;25.30;16.97;;;;;;;6.89;33.44;95815.13;1682566;84;22342;-48
2022/01/24 11:50:37;;;;;;;21.65;15.55;;;;;;;7.46;32.57;95800.75;1603142;86;21105;-49
2022/01/24 11:53:23;;;;;;;21.52;14.70;;;;;;;8.18;32.60;95803.91;1652077;83;21269;-47
2022/01/24 11:55:50;;;;;;;19.70;14.53;;;;;;;8.69;32.57;95803.20;1667673;84;21150;-47
2022/01/24 11:58:30;;;;;;;20.17;14.68;;;;;;;9.13;30.86;95805.79;1626838;86;21475;-47
2022/01/24 12:01:04;;;;;;;18.60;13.15;;;;;;;9.36;30.38;95807.23;1653493;84;20966;-47
2022/01/24 12:03:28;;;;;;;29.45;19.48;;;;;;;9.60;30.05;95812.39;1646551;84;21096;-46
2022/01/24 12:05:57;;;;;;;29.00;20.05;;;;;;;9.88;29.47;95816.09;1625941;86;21170;-47
2022/01/24 12:08:38;;;;;;;26.60;17.77;;;;;;;10.42;28.99;95803.83;1636521;84;21713;-45
2022/01/24 12:11:27;;;;;;;17.70;13.48;;;;;;;11.00;28.14;95804.48;1649509;85;21753;-48
2022/01/24 12:14:02;;;;;;;14.95;11.33;;;;;;;11.34;27.79;95798.83;1657634;83;21512;-45
2022/01/24 12:16:42;;;;;;;18.80;14.58;;;;;;;11.10;28.10;95802.09;1625341;85;21049;-48
2022/01/24 12:19:12;;;;;;;17.48;12.23;;;;;;;11.20;27.57;95796.36;1587483;87;22019;-46
2022/01/24 12:21:41;;;;;;;19.20;12.82;;;;;;;11.54;27.10;95798.80;1673866;83;21037;-47
2022/01/24 12:24:13;;;;;;;26.60;19.62;;;;;;;11.89;26.31;95794.66;1648162;85;21000;-47
2022/01/24 12:26:47;;;;;;;25.57;17.90;;;;;;;12.09;26.19;95798.10;1634393;84;21045;-47
2022/01/24 12:29:19;;;;;;;22.82;16.48;;;;;;;12.07;25.79;95799.14;1651822;85;21075;-48
2022/01/24 12:31:51;;;;;;;20.05;14.95;;;;;;;11.85;26.19;95798.09;1646969;86;21015;-50
2022/01/24 12:34:26;;;;;;;20.47;15.27;;;;;;;11.58;26.43;95796.18;1634161;85;21014;-47
2022/01/24 12:37:04;;;;;;;25.52;18.87;;;;;;;11.26;26.64;95794.69;1644930;86;21113;-48
2022/01/24 12:39:52;;;;;;;34.78;23.83;;;;;;;11.03;26.96;95798.91;1643983;85;21195;-47
2022/01/24 12:42:32;;;;;;;29.95;20.57;;;;;;;11.11;26.95;95809.16;1636108;86;21122;-46
2022/01/24 12:47:28;;;;;;;27.13;16.60;;;;;;;10.73;26.39;95814.06;1620299;87;21019;-46
2022/01/24 12:49:55;;;;;;;24.47;16.67;;;;;;;10.37;26.87;95817.28;1652625;84;21146;-46
2022/01/24 12:52:29;;;;;;;21.85;15.95;;;;;;;10.31;27.57;95809.34;1639147;85;21081;-47
2022/01/24 12:54:59;;;;;;;34.20;19.82;;;;;;;10.68;27.55;95804.93;1632544;85;21180;-46
2022/01/24 12:57:37;;;;;;;31.07;20.20;;;;;;;10.87;27.03;95814.56;1680622;83;21012;-48
2022/01/24 13:00:07;;;;;;;44.33;27.30;;;;;;;10.95;27.11;95814.62;1665355;84;21045;-49
2022/01/24 13:02:38;;;;;;;34.88;24.65;;;;;;;10.71;27.07;95812.34;1658371;84;21199;-47
2022/01/24 13:05:16;;;;;;;43.92;27.95;;;;;;;10.62;27.25;95810.14;1631040;86;21091;-48
2022/01/24 13:07:57;;;;;;;41.20;25.95;;;;;;;10.59;27.27;95821.20;1673867;84;21013;-48
2022/01/24 13:10:26;;;;;;;44.67;25.23;;;;;;;10.36;27.46;95806.86;1642649;84;21211;-45
2022/01/24 13:13:10;;;;;;;38.78;22.52;;;;;;;9.96;27.79;95809.89;1660562;84;21045;-46
2022/01/24 13:21:22;;;;;;;32.30;20.17;;;;;;;8.74;29.19;95816.46;1628269;86;21125;-45
2022/01/24 13:24:00;;;;;;;38.05;21.17;;;;;;;8.31;29.99;95811.25;1658107;85;21052;-46
2022/01/24 13:26:27;;;;;;;51.20;26.50;;;;;;;8.31;30.13;95815.36;1642126;85;21108;-46
2022/01/24 13:29:04;;;;;;;39.10;22.80;;;;;;;8.55;30.18;95808.05;1610047;86;21160;-47
2022/01/24 13:31:35;;;;;;;39.13;21.97;;;;;;;8.80;29.79;95805.83;1644534;85;21652;-46